createdAt,value
2024-04-24T00:00:25.487Z,22.41
2024-04-24T00:03:06.597Z,22.41
2024-04-24T00:05:40.581Z,22.41
2024-04-24T00:08:14.076Z,22.41
2024-04-24T00:10:52.097Z,22.42
2024-04-24T00:13:25.659Z,22.40
2024-04-24T00:15:56.838Z,22.42
2024-04-24T00:18:30.718Z,22.41
2024-04-24T00:21:02.225Z,22.42
2024-04-24T00:23:36.112Z,22.42
2024-04-24T00:26:09.215Z,22.41
2024-04-24T00:28:40.634Z,22.40
2024-04-24T00:31:10.775Z,22.41
2024-04-24T00:33:41.272Z,22.41
2024-04-24T00:36:13.716Z,22.40
2024-04-24T00:38:47.296Z,22.39
2024-04-24T00:41:26.611Z,22.41
2024-04-24T00:43:57.106Z,22.41
2024-04-24T00:46:31.025Z,22.41
2024-04-24T00:49:02.508Z,22.41
2024-04-24T00:51:33.907Z,22.42
2024-04-24T00:54:03.981Z,22.43
2024-04-24T00:56:40.966Z,22.46
2024-04-24T00:59:13.549Z,22.47
2024-04-24T01:01:43.852Z,22.48
2024-04-24T01:04:14.859Z,22.50
2024-04-24T01:06:49.145Z,22.50
2024-04-24T01:09:24.765Z,22.52
2024-04-24T01:11:58.984Z,22.51
2024-04-24T01:14:30.119Z,22.54
2024-04-24T01:17:01.384Z,22.53
2024-04-24T01:19:43.394Z,22.54
2024-04-24T01:22:26.019Z,22.54
2024-04-24T01:25:01.265Z,22.56
2024-04-24T01:27:35.360Z,22.57
2024-04-24T01:30:07.215Z,22.57
2024-04-24T01:32:38.978Z,22.58
2024-04-24T01:35:06.814Z,22.57
2024-04-24T01:37:38.189Z,22.58
2024-04-24T01:40:11.013Z,22.58
2024-04-24T01:42:45.122Z,22.59
2024-04-24T01:45:15.357Z,22.58
2024-04-24T01:47:47.218Z,22.59
2024-04-24T01:50:18.639Z,22.60
2024-04-24T01:52:48.828Z,22.59
2024-04-24T01:55:24.345Z,22.61
2024-04-24T01:58:03.626Z,22.61
2024-04-24T02:00:33.741Z,22.63
2024-04-24T02:03:03.900Z,22.65
2024-04-24T02:05:33.982Z,22.64
2024-04-24T02:08:04.081Z,22.66
2024-04-24T02:10:34.477Z,22.66
2024-04-24T02:13:07.632Z,22.67
2024-04-24T02:15:37.719Z,22.67
2024-04-24T02:18:08.865Z,22.67
2024-04-24T02:20:39.150Z,22.67
2024-04-24T02:23:09.426Z,22.67
2024-04-24T02:25:37.912Z,22.67
2024-04-24T02:28:11.218Z,22.68
2024-04-24T02:30:41.343Z,22.69
2024-04-24T02:33:11.519Z,22.69
2024-04-24T02:35:41.694Z,22.70
2024-04-24T02:38:12.171Z,22.69
2024-04-24T02:40:42.298Z,22.70
2024-04-24T02:43:15.042Z,22.70
2024-04-24T02:45:47.073Z,22.69
2024-04-24T02:48:17.245Z,22.71
2024-04-24T02:50:47.781Z,22.72
2024-04-24T02:53:17.932Z,22.72
2024-04-24T02:55:48.124Z,22.72
2024-04-24T02:58:20.931Z,22.73
2024-04-24T03:00:51.041Z,22.73
2024-04-24T03:03:21.288Z,22.75
2024-04-24T03:05:51.419Z,22.75
2024-04-24T03:08:21.657Z,22.75
2024-04-24T03:10:51.806Z,22.76
2024-04-24T03:13:24.609Z,22.77
2024-04-24T03:15:54.682Z,22.76
2024-04-24T03:18:24.775Z,22.76
2024-04-24T03:20:55.031Z,22.76
2024-04-24T03:23:25.148Z,22.77
2024-04-24T03:25:55.258Z,22.76
2024-04-24T03:28:28.123Z,22.76
2024-04-24T03:30:55.518Z,22.76
2024-04-24T03:33:25.686Z,22.77
2024-04-24T03:35:55.800Z,22.77
2024-04-24T03:38:25.980Z,22.77
2024-04-24T03:40:56.139Z,22.76
2024-04-24T03:43:31.083Z,22.76
2024-04-24T03:46:01.190Z,22.75
2024-04-24T03:48:31.267Z,22.77
2024-04-24T03:50:58.701Z,22.77
2024-04-24T03:53:28.900Z,22.77
2024-04-24T03:55:59.088Z,22.77
2024-04-24T03:58:31.901Z,22.78
2024-04-24T04:01:02.043Z,22.78
2024-04-24T04:03:32.270Z,22.79
2024-04-24T04:06:02.507Z,22.79
2024-04-24T04:08:33.048Z,22.79
2024-04-24T04:11:03.443Z,22.79
2024-04-24T04:13:36.256Z,22.79
2024-04-24T04:16:06.530Z,22.78
2024-04-24T04:18:36.753Z,22.79
2024-04-24T04:21:07.307Z,22.79
2024-04-24T04:23:37.383Z,22.79
2024-04-24T04:26:07.705Z,22.78
2024-04-24T04:28:40.556Z,22.79
2024-04-24T04:31:10.610Z,22.78
2024-04-24T04:33:40.890Z,22.78
2024-04-24T04:36:11.534Z,22.77
2024-04-24T04:38:41.628Z,22.77
2024-04-24T04:41:11.776Z,22.77
2024-04-24T04:43:44.552Z,22.77
2024-04-24T04:46:14.658Z,22.77
2024-04-24T04:48:44.800Z,22.77
2024-04-24T04:51:14.997Z,22.79
2024-04-24T04:53:45.095Z,22.80
2024-04-24T04:56:15.225Z,22.80
2024-04-24T04:58:48.035Z,22.81
2024-04-24T05:01:18.111Z,22.81
2024-04-24T05:04:16.830Z,22.82
2024-04-24T05:06:44.247Z,22.83
2024-04-24T05:09:14.305Z,22.83
2024-04-24T05:11:47.128Z,22.84
2024-04-24T05:14:20.145Z,22.84
2024-04-24T05:16:50.462Z,22.85
2024-04-24T05:19:20.640Z,22.86
2024-04-24T05:21:50.711Z,22.86
2024-04-24T05:24:20.788Z,22.86
2024-04-24T05:27:06.640Z,22.86
2024-04-24T05:29:39.387Z,22.87
2024-04-24T05:32:09.558Z,22.88
2024-04-24T05:34:39.672Z,22.89
2024-04-24T05:37:12.903Z,22.89
2024-04-24T05:39:43.756Z,22.89
2024-04-24T05:42:13.885Z,22.91
2024-04-24T05:44:46.720Z,22.91
2024-04-24T05:47:16.895Z,22.92
2024-04-24T05:49:47.011Z,22.91
2024-04-24T05:52:17.268Z,22.92
2024-04-24T05:54:47.406Z,22.95
2024-04-24T05:57:17.734Z,22.94
2024-04-24T05:59:50.510Z,22.96
2024-04-24T06:02:20.619Z,22.97
2024-04-24T06:04:52.160Z,22.98
2024-04-24T06:07:22.396Z,22.98
2024-04-24T06:09:52.467Z,22.99
2024-04-24T06:12:22.785Z,23.00
2024-04-24T06:14:55.570Z,23.02
2024-04-24T06:17:25.763Z,23.03
2024-04-24T06:19:56.907Z,23.07
2024-04-24T06:22:27.117Z,23.07
2024-04-24T06:24:57.234Z,23.08
2024-04-24T06:27:27.311Z,23.10
2024-04-24T06:30:00.840Z,23.11
2024-04-24T06:32:31.267Z,23.12
2024-04-24T06:35:01.566Z,23.14
2024-04-24T06:37:31.645Z,23.16
2024-04-24T06:40:01.721Z,23.20
2024-04-24T06:42:33.001Z,23.21
2024-04-24T06:45:05.784Z,23.21
2024-04-24T06:47:35.936Z,23.24
2024-04-24T06:50:06.153Z,23.25
2024-04-24T06:52:36.250Z,23.26
2024-04-24T06:55:06.574Z,23.29
2024-04-24T06:57:36.749Z,23.31
2024-04-24T07:00:10.885Z,23.33
2024-04-24T07:02:41.009Z,23.34
2024-04-24T07:05:11.223Z,23.33
2024-04-24T07:07:41.383Z,23.34
2024-04-24T07:10:11.713Z,23.33
2024-04-24T07:12:43.876Z,23.34
2024-04-24T07:15:18.041Z,23.36
2024-04-24T07:17:48.361Z,23.38
2024-04-24T07:20:18.690Z,23.41
2024-04-24T07:22:48.763Z,23.43
2024-04-24T07:25:18.918Z,23.45
2024-04-24T07:27:49.094Z,23.45
2024-04-24T07:30:23.851Z,23.46
2024-04-24T07:32:53.998Z,23.44
2024-04-24T07:35:24.211Z,23.43
2024-04-24T07:37:55.801Z,23.42
2024-04-24T07:40:25.981Z,23.41
2024-04-24T07:42:56.981Z,23.38
2024-04-24T07:45:29.812Z,23.35
2024-04-24T07:47:59.975Z,23.35
2024-04-24T07:50:30.207Z,23.36
2024-04-24T07:53:00.379Z,23.35
2024-04-24T07:55:30.513Z,23.33
2024-04-24T07:58:00.641Z,23.31
2024-04-24T08:00:33.687Z,23.31
2024-04-24T08:03:04.586Z,23.33
2024-04-24T08:05:34.833Z,23.32
2024-04-24T08:08:05.654Z,23.35
2024-04-24T08:10:35.874Z,23.37
2024-04-24T08:13:06.015Z,23.37
2024-04-24T08:15:40.076Z,23.37
2024-04-24T08:18:10.309Z,23.35
2024-04-24T08:20:40.491Z,23.35
2024-04-24T08:23:13.713Z,23.35
2024-04-24T08:25:45.552Z,23.33
2024-04-24T08:28:22.269Z,23.33
2024-04-24T08:31:06.135Z,23.32
2024-04-24T08:33:36.461Z,23.32
2024-04-24T08:36:07.637Z,23.34
2024-04-24T08:38:38.890Z,23.34
2024-04-24T08:41:10.445Z,23.34
2024-04-24T08:43:41.133Z,23.33
2024-04-24T08:46:14.371Z,23.34
2024-04-24T08:48:45.978Z,23.32
2024-04-24T09:23:38.011Z,23.33
2024-04-24T09:26:09.015Z,23.31
2024-04-24T09:28:39.188Z,23.34
2024-04-24T09:31:10.224Z,23.35
2024-04-24T09:33:40.448Z,23.35
2024-04-24T09:56:30.229Z,23.44
2024-04-24T09:59:00.339Z,23.47
2024-04-24T10:01:31.061Z,23.46
2024-04-24T10:04:01.532Z,23.47
2024-04-24T10:06:31.802Z,23.48
2024-04-24T10:09:01.906Z,23.48
2024-04-24T10:11:36.693Z,23.49
2024-04-24T10:14:07.237Z,23.51
2024-04-24T10:16:38.098Z,23.49
2024-04-24T10:19:08.223Z,23.48
2024-04-24T10:21:38.386Z,23.49
2024-04-24T10:24:08.965Z,23.52
2024-04-24T10:26:41.982Z,23.52
2024-04-24T10:29:12.143Z,23.53
2024-04-24T10:31:42.412Z,23.56
2024-04-24T10:34:12.504Z,23.56
2024-04-24T10:36:42.922Z,23.58
2024-04-24T10:39:14.422Z,23.60
2024-04-24T10:41:47.771Z,23.61
2024-04-24T10:44:17.866Z,23.61
2024-04-24T10:46:49.776Z,23.60
2024-04-24T10:49:20.143Z,23.60
2024-04-24T10:51:51.457Z,23.62
2024-04-24T10:54:21.540Z,23.64
2024-04-24T10:56:54.700Z,23.62
2024-04-24T10:59:33.139Z,23.62
2024-04-24T11:02:18.542Z,23.62
2024-04-24T11:04:49.007Z,23.63
2024-04-24T11:08:11.004Z,23.63
2024-04-24T11:10:41.081Z,23.63
2024-04-24T11:13:18.799Z,23.65
2024-04-24T11:15:58.179Z,23.65
2024-04-24T11:18:32.212Z,23.67
2024-04-24T11:21:03.049Z,23.68
2024-04-24T11:23:34.599Z,23.70
2024-04-24T11:26:04.728Z,23.72
2024-04-24T11:28:34.868Z,23.74
2024-04-24T11:31:07.705Z,23.75
2024-04-24T11:33:39.411Z,23.75
2024-04-24T11:37:02.818Z,23.74
2024-04-24T11:39:32.946Z,23.76
2024-04-24T11:42:03.095Z,23.77
2024-04-24T11:44:36.323Z,23.78
2024-04-24T11:47:06.516Z,23.78
2024-04-24T11:49:37.960Z,23.78
2024-04-24T11:52:23.220Z,23.77
2024-04-24T11:54:53.351Z,23.76
2024-04-24T11:57:23.449Z,23.76
2024-04-24T11:59:58.914Z,23.74
2024-04-24T12:02:29.194Z,23.72
2024-04-24T12:04:59.372Z,23.72
2024-04-24T12:07:30.019Z,23.69
2024-04-24T12:10:00.142Z,23.68
2024-04-24T12:12:30.396Z,23.68
2024-04-24T12:15:03.186Z,23.65
2024-04-24T12:17:33.594Z,23.64
2024-04-24T12:20:06.814Z,23.64
2024-04-24T12:22:37.547Z,23.64
2024-04-24T12:25:08.000Z,23.62
2024-04-24T12:27:39.125Z,23.62
2024-04-24T12:30:12.739Z,23.61
2024-04-24T12:32:42.974Z,23.61
2024-04-24T12:35:13.281Z,23.60
2024-04-24T12:37:43.379Z,23.59
2024-04-24T12:40:15.353Z,23.59
2024-04-24T12:42:45.518Z,23.58
2024-04-24T12:45:18.299Z,23.57
2024-04-24T12:47:48.917Z,23.56
2024-04-24T12:50:19.761Z,23.55
2024-04-24T12:53:23.938Z,23.54
2024-04-24T12:55:54.197Z,23.54
2024-04-24T12:58:24.387Z,23.53
2024-04-24T13:00:57.275Z,23.53
2024-04-24T13:03:27.446Z,23.52
2024-04-24T13:05:57.573Z,23.52
2024-04-24T13:08:27.708Z,23.51
2024-04-24T13:10:58.050Z,23.51
2024-04-24T13:13:28.210Z,23.51
2024-04-24T13:16:01.005Z,23.51
2024-04-24T13:18:31.259Z,23.52
2024-04-24T13:21:01.483Z,23.52
2024-04-24T13:23:31.560Z,23.51
2024-04-24T13:26:01.696Z,23.52
2024-04-24T13:28:31.877Z,23.53
2024-04-24T13:31:07.123Z,23.53
2024-04-24T13:33:38.135Z,23.54
2024-04-24T13:36:08.861Z,23.54
2024-04-24T13:38:57.407Z,23.56
2024-04-24T13:41:33.032Z,23.55
2024-04-24T13:44:04.866Z,23.56
2024-04-24T13:46:37.795Z,23.57
2024-04-24T13:49:07.955Z,23.57
2024-04-24T13:52:11.820Z,23.57
2024-04-24T13:54:41.892Z,23.56
2024-04-24T13:57:12.238Z,23.58
2024-04-24T13:59:42.351Z,23.57
2024-04-24T14:02:15.209Z,23.56
2024-04-24T14:04:42.679Z,23.55
2024-04-24T14:07:12.994Z,23.55
2024-04-24T14:09:43.123Z,23.55
2024-04-24T14:12:13.541Z,23.56
2024-04-24T14:14:43.642Z,23.58
2024-04-24T14:17:16.413Z,23.60
2024-04-24T14:19:46.716Z,23.63
2024-04-24T14:23:03.284Z,23.63
2024-04-24T14:25:35.552Z,23.65
2024-04-24T14:28:06.032Z,23.64
2024-04-24T14:30:36.121Z,23.64
2024-04-24T14:33:09.238Z,23.69
2024-04-24T14:35:39.606Z,23.77
2024-04-24T14:41:50.618Z,23.79
2024-04-24T14:44:20.718Z,23.77
2024-04-24T14:46:50.782Z,23.74
2024-04-24T14:49:26.157Z,23.70
2024-04-24T14:55:47.384Z,23.68
2024-04-24T14:58:17.639Z,23.67
2024-04-24T15:00:47.724Z,23.66
2024-04-24T15:03:17.888Z,23.66
2024-04-24T15:05:50.728Z,23.65
2024-04-24T15:08:20.825Z,23.64
2024-04-24T15:10:50.926Z,23.64
2024-04-24T15:13:21.009Z,23.64
2024-04-24T15:15:51.161Z,23.64
2024-04-24T15:18:22.529Z,23.64
2024-04-24T15:20:55.415Z,23.63
2024-04-24T15:23:25.525Z,23.63
2024-04-24T15:25:55.614Z,23.63
2024-04-24T15:28:25.712Z,23.63
2024-04-24T15:30:55.775Z,23.62
2024-04-24T15:33:26.062Z,23.62
2024-04-24T15:35:59.034Z,23.61
2024-04-24T15:38:47.750Z,23.60
2024-04-24T15:41:17.952Z,23.59
2024-04-24T15:43:48.104Z,23.62
2024-04-24T15:46:18.214Z,23.65
2024-04-24T15:48:48.497Z,23.65
2024-04-24T15:51:21.313Z,23.63
2024-04-24T15:53:51.419Z,23.61
2024-04-24T15:56:21.482Z,23.61
2024-04-24T15:58:51.706Z,23.59
2024-04-24T16:01:19.865Z,23.59
2024-04-24T16:03:50.054Z,23.58
2024-04-24T16:06:23.917Z,23.58
2024-04-24T16:08:53.988Z,23.59
2024-04-24T16:11:24.129Z,23.59
2024-04-24T16:13:54.215Z,23.58
2024-04-24T16:16:24.354Z,23.60
2024-04-24T16:18:54.535Z,23.59
2024-04-24T16:21:28.439Z,23.58
2024-04-24T16:23:58.457Z,23.60
2024-04-24T16:26:28.640Z,23.60
2024-04-24T16:28:58.827Z,23.60
2024-04-24T16:31:28.999Z,23.61
2024-04-24T16:33:59.114Z,23.62
2024-04-24T16:36:32.295Z,23.62
2024-04-24T16:39:02.351Z,23.62
2024-04-24T16:41:32.607Z,23.61
2024-04-24T16:44:02.710Z,23.61
2024-04-24T16:46:33.020Z,23.60
2024-04-24T16:49:03.135Z,23.60
2024-04-24T16:51:39.414Z,23.59
2024-04-24T16:54:09.593Z,23.59
2024-04-24T16:56:39.668Z,23.58
2024-04-24T16:59:09.792Z,23.59
2024-04-24T17:01:40.714Z,23.58
2024-04-24T17:04:12.905Z,23.57
2024-04-24T17:06:45.980Z,23.57
2024-04-24T17:09:16.070Z,23.56
2024-04-24T17:11:46.210Z,23.56
2024-04-24T17:14:16.648Z,23.54
2024-04-24T17:16:46.778Z,23.55
2024-04-24T17:19:17.039Z,23.55
2024-04-24T17:21:49.903Z,23.54
2024-04-24T17:24:25.921Z,23.54
2024-04-24T17:26:56.149Z,23.51
2024-04-24T17:29:26.351Z,23.51
2024-04-24T17:31:56.841Z,23.47
2024-04-24T17:34:26.976Z,23.47
2024-04-24T17:36:59.762Z,23.48
2024-04-24T17:39:43.275Z,23.46
2024-04-24T17:42:13.348Z,23.47
2024-04-24T17:44:43.454Z,23.45
2024-04-24T17:47:14.257Z,23.45
2024-04-24T17:49:44.419Z,23.44
2024-04-24T17:52:17.230Z,23.43
2024-04-24T17:54:47.304Z,23.41
2024-04-24T17:57:17.462Z,23.41
2024-04-24T17:59:47.552Z,23.39
2024-04-24T18:02:17.662Z,23.39
2024-04-24T18:04:47.709Z,23.39
2024-04-24T18:07:20.858Z,23.38
2024-04-24T18:09:50.943Z,23.40
2024-04-24T18:12:21.075Z,23.41
2024-04-24T18:14:51.153Z,23.41
2024-04-24T18:17:21.614Z,23.41
2024-04-24T18:19:51.962Z,23.40
2024-04-24T18:22:24.720Z,23.40
2024-04-24T18:24:55.306Z,23.39
2024-04-24T18:27:25.361Z,23.37
2024-04-24T18:29:55.424Z,23.37
2024-04-24T18:32:27.224Z,23.38
2024-04-24T18:34:57.412Z,23.37
2024-04-24T18:37:30.142Z,23.36
2024-04-24T18:40:54.625Z,23.36
2024-04-24T18:43:24.752Z,23.35
2024-04-24T18:45:54.808Z,23.35
2024-04-24T18:48:24.984Z,23.34
2024-04-24T18:50:55.425Z,23.32
2024-04-24T18:53:30.611Z,23.31
2024-04-24T18:56:02.226Z,23.32
2024-04-24T18:58:32.392Z,23.30
2024-04-24T19:01:02.585Z,23.30
2024-04-24T19:03:32.866Z,23.29
2024-04-24T19:06:03.039Z,23.27
2024-04-24T19:08:35.964Z,23.28
2024-04-24T19:11:06.406Z,23.28
2024-04-24T19:13:36.548Z,23.27
2024-04-24T19:16:06.944Z,23.27
2024-04-24T19:18:37.033Z,23.28
2024-04-24T19:21:08.735Z,23.29
2024-04-24T19:23:41.599Z,23.28
2024-04-24T19:26:11.762Z,23.28
2024-04-24T19:28:41.848Z,23.26
2024-04-24T19:31:23.295Z,23.27
2024-04-24T19:33:57.863Z,23.25
2024-04-24T19:36:28.798Z,23.25
2024-04-24T19:39:59.970Z,23.24
2024-04-24T19:42:33.445Z,23.23
2024-04-24T19:45:03.596Z,23.23
2024-04-24T19:47:33.757Z,23.23
2024-04-24T19:50:04.679Z,23.23
2024-04-24T19:52:34.766Z,23.22
2024-04-24T19:55:05.686Z,23.20
2024-04-24T19:57:38.505Z,23.20
2024-04-24T20:00:09.519Z,23.20
2024-04-24T20:02:39.617Z,23.17
2024-04-24T20:05:10.104Z,23.17
2024-04-24T20:07:42.125Z,23.16
2024-04-24T20:10:12.325Z,23.15
2024-04-24T20:12:45.045Z,23.15
2024-04-24T20:15:15.102Z,23.16
2024-04-24T20:17:45.294Z,23.16
2024-04-24T20:20:15.516Z,23.16
2024-04-24T20:22:47.800Z,23.15
2024-04-24T20:25:17.925Z,23.15
2024-04-24T20:27:52.053Z,23.15
2024-04-24T20:30:22.100Z,23.15
2024-04-24T20:32:52.371Z,23.15
2024-04-24T20:35:22.605Z,23.14
2024-04-24T20:37:52.706Z,23.14
2024-04-24T20:40:22.786Z,23.12
2024-04-24T20:42:55.531Z,23.12
2024-04-24T20:45:25.666Z,23.11
2024-04-24T20:47:55.908Z,23.10
2024-04-24T20:50:26.107Z,23.09
2024-04-24T20:52:56.257Z,23.08
2024-04-24T20:55:29.917Z,23.07
2024-04-24T20:58:02.703Z,23.07
2024-04-24T21:00:32.808Z,23.06
2024-04-24T21:03:02.978Z,23.03
2024-04-24T21:05:33.239Z,23.04
2024-04-24T21:08:03.460Z,23.04
2024-04-24T21:11:13.921Z,23.04
2024-04-24T21:13:46.843Z,23.02
2024-04-24T21:16:16.908Z,23.03
2024-04-24T21:18:47.258Z,23.02
2024-04-24T21:21:17.420Z,23.03
2024-04-24T21:23:44.930Z,23.02
2024-04-24T21:26:16.956Z,23.02
2024-04-24T21:28:50.223Z,23.01
2024-04-24T21:31:20.296Z,23.01
2024-04-24T21:33:50.358Z,23.03
2024-04-24T21:36:20.435Z,23.02
2024-04-24T21:38:50.495Z,22.98
2024-04-24T21:41:39.016Z,22.97
2024-04-24T21:44:11.803Z,22.96
2024-04-24T21:46:42.040Z,22.93
2024-04-24T21:49:14.088Z,22.93
2024-04-24T21:51:42.731Z,22.92
2024-04-24T21:57:30.840Z,22.88
2024-04-24T22:00:06.256Z,22.87
2024-04-24T22:02:39.802Z,22.86
2024-04-24T22:05:12.689Z,22.85
2024-04-24T22:07:43.806Z,22.84
2024-04-24T22:10:17.029Z,22.83
2024-04-24T22:12:50.814Z,22.81
2024-04-24T22:15:28.781Z,22.81
2024-04-24T22:18:01.287Z,22.82
2024-04-24T22:20:34.541Z,22.81
2024-04-24T22:23:06.511Z,22.81
2024-04-24T22:26:27.535Z,22.80
2024-04-24T22:29:01.726Z,22.80
2024-04-24T22:31:36.071Z,22.79
2024-04-24T22:34:07.511Z,22.80
2024-04-24T22:36:38.887Z,22.79
2024-04-24T22:39:10.563Z,22.78
2024-04-24T22:41:43.610Z,22.77
2024-04-24T22:44:17.143Z,22.75
2024-04-24T22:46:53.785Z,22.74
2024-04-24T22:49:25.278Z,22.74
2024-04-24T22:51:55.307Z,22.73
2024-04-24T22:54:26.717Z,22.72
2024-04-24T22:56:57.011Z,22.70
2024-04-24T22:59:28.222Z,22.68
2024-04-24T23:02:02.234Z,22.68
2024-04-24T23:04:35.964Z,22.67
2024-04-24T23:07:06.827Z,22.66
2024-04-24T23:09:38.030Z,22.65
2024-04-24T23:12:12.622Z,22.65
2024-04-24T23:14:43.578Z,22.64
2024-04-24T23:17:17.654Z,22.64
2024-04-24T23:19:54.486Z,22.64
2024-04-24T23:22:27.155Z,22.61
2024-04-24T23:24:58.493Z,22.64
2024-04-24T23:27:39.304Z,22.64
2024-04-24T23:30:10.460Z,22.64
2024-04-24T23:32:48.581Z,22.63
2024-04-24T23:35:19.418Z,22.63
2024-04-24T23:37:51.603Z,22.61
2024-04-24T23:44:28.179Z,22.59
2024-04-24T23:47:01.533Z,22.57
2024-04-24T23:49:42.991Z,22.57
2024-04-24T23:52:14.630Z,22.56
2024-04-24T23:54:45.879Z,22.55
2024-04-24T23:57:16.875Z,22.55
2024-04-24T23:59:46.944Z,22.54
